Skip to Main Content
SEARCH:
Location Air RH Dwp Precip Type Wind Speed Wind Gust Direction Pavement Temperature Date/Time
Hatem Bridge US 40 E/B 71 87 67 None - - No Data Available 69 - 69 9/26/2017 1:15:00 AM
I-270 at I-370 71 79 64 None Calm Calm N 77 - 78 9/26/2017 1:15:00 AM
I-270 at MD-109 66 100 66 None Calm Calm SW 75 - 75 9/26/2017 1:15:00 AM
I-495 at American Legion Bridge 67 100 67 None Calm 6 mph N 74 - 75 9/26/2017 1:15:00 AM
I-68 at MD-219 67 91 64 None 4 mph 7 mph E 69 - 70 9/26/2017 1:15:00 AM
I-68 at Savage Mt 63 100 63 None Calm Calm NW 69 - 69 9/26/2017 1:15:00 AM
I-68 at Sideling Hill 72 88 68 None Calm Calm W 76 - 77 9/26/2017 1:15:00 AM
I-68 at WV Line 61 99 61 None Calm Calm SW 69 - 70 9/26/2017 1:15:00 AM
I-695 at I-83 68 85 64 None Calm Calm N 75 - 77 9/26/2017 1:15:00 AM
I-70 at Fred-Wash Co. - - - No Data Available - - No Data Available -
I-70 at I-695 68 87 65 None Calm Calm E 76 - 80 9/26/2017 1:15:00 AM
I-70 at I-81 69 100 69 None Calm Calm N - 9/26/2017 1:15:00 AM
I-70 at MD-27 69 89 66 None Calm 4 mph E 74 - 75 9/26/2017 1:15:00 AM
I-70 at MD-32 - - - No Data Available - - No Data Available -
I-83 at MD-137 68 98 67 None Calm Calm W 75 - 75 9/26/2017 1:15:00 AM
I-95 at I-695 NE 70 85 65 None Calm Calm N 76 - 78 9/26/2017 1:15:00 AM
I-95 at Patuxent River 70 86 66 None Calm 6 mph N 75 - 76 9/26/2017 1:15:00 AM
I-95 at Tydings Bridge 69 88 66 None Calm 7 mph NE - 9/26/2017 1:15:00 AM
I-95/495 at I-295 76 67 64 None Calm 4 mph N 78 - 78 9/26/2017 1:15:00 AM
I-97 at MD-100 68 87 64 None Calm Calm NW 75 - 76 9/26/2017 1:15:00 AM
I-97 at MD-32 66 90 63 None 10 mph 11 mph N 74 - 75 9/26/2017 1:15:00 AM
MD 20 at MD 21 65 95 64 None Calm Calm N 75 - 75 9/26/2017 1:15:00 AM
MD 231 at Patuxent River 70 93 68 None 7 mph 10 mph NE 74 - 75 9/26/2017 1:15:00 AM
MD 260 at Cox Rd 68 93 66 None Calm 5 mph NE 78 - 78 9/26/2017 1:15:00 AM
MD-135 at Salt Dome 66 98 65 None Calm 6 mph E 71 - 71 9/26/2017 1:15:00 AM
MD-140 at MD-97 69 94 67 None Calm 4 mph SE 77 - 77 9/26/2017 1:15:00 AM
MD-200 EB at Bonifant Rd 67 93 66 None Calm 4 mph N 70 - 73 9/26/2017 1:15:00 AM
MD-200 WB at Muncaster Mill Rd 65 95 64 None Calm Calm N 72 - 73 9/26/2017 1:15:00 AM
MD-213 at Sassafras River 69 100 69 None 4 mph 6 mph N 75 - 75 9/26/2017 1:15:00 AM
MD-24 at Rock St Park 68 100 68 None Calm Calm N 69 - 69 9/26/2017 1:15:00 AM
MD-30 at PA Line 69 96 68 None 4 mph 8 mph SE 76 - 76 9/26/2017 1:15:00 AM
MD-301 at MD-305 67 93 65 None Calm Calm NE 74 - 76 9/26/2017 1:15:00 AM
MD-33 at Knapps Narrows Drawbridge 67 93 65 None 4 mph 8 mph NE 77 - 77 9/26/2017 1:15:00 AM
MD-344 at MD-224 68 94 66 None Calm Calm N - 9/26/2017 1:15:00 AM
MD-4 at Patuxent River 69 97 68 None - - No Data Available 74 - 74 9/26/2017 1:15:00 AM
MD-404 at Choptank River 68 92 65 None Calm 6 mph NE 74 - 76 9/26/2017 1:15:00 AM
MD-43 at MD-150 - - - No Data Available - - No Data Available -
MD-51 at Oldtown Salt Dome 63 99 63 None Calm Calm N 77 - 77 9/26/2017 1:15:00 AM
MD-64 at MD-418 - - - No Data Available - - No Data Available -
US-1 at Baltimore / Harford Co. Line 65 97 65 None Calm Calm NW 71 - 73 9/26/2017 1:15:00 AM
US-1 at Conowingo Dam 69 97 69 None Calm Calm N 77 - 77 9/26/2017 1:15:00 AM
US-13 at US-113 68 95 66 None 4 mph 9 mph N 79 - 79 9/26/2017 1:15:00 AM
US-13 at US-50 - - - No Data Available - - No Data Available -
US-15 at MD-140 66 96 65 None Calm Calm NE 76 - 77 9/26/2017 1:15:00 AM
US-301 at MD-5 68 92 66 None Calm 4 mph N 76 - 76 9/26/2017 1:15:00 AM
US-301 at Potomac 73 81 67 None Calm 7 mph NE 74 - 76 9/26/2017 1:15:00 AM
US-301 on HWN Bridge 70 86 66 None 8 mph 10 mph NE 70 - 70 9/26/2017 1:18:00 AM
US-340 at MD-180 66 95 65 None Calm 5 mph NW 74 - 77 9/26/2017 1:15:00 AM
US-50 at Choptank 68 100 68 None Calm Calm N 74 - 74 9/26/2017 1:15:00 AM
US-50 at I-95 70 84 65 None Calm Calm NE 76 - 79 9/26/2017 1:15:00 AM
US-50 at MD-2 67 94 66 None Calm Calm E 71 - 77 9/26/2017 1:15:00 AM
US-50 at MD-331 69 89 66 None 4 mph 10 mph E 75 - 78 9/26/2017 1:15:00 AM
US-50 at OC Drawbridge 68 100 68 None 10 mph 14 mph NE 72 - 72 9/26/2017 1:15:00 AM
US-50 at Table Rock Rd 64 96 63 None Calm 4 mph E 70 - 70 9/26/2017 1:15:00 AM
US-50 Kent Narrow Bridge 69 97 68 None Calm 6 mph NE 74 - 75 9/26/2017 1:15:00 AM
WPL Pier 31 - - - No Data Available - - No Data Available - 9/26/2017 1:15:00 AM
Location Air RH Dwp Precip Type Wind Speed Wind Gust Direction Pavement Temperature Date/Time